createdAt,value
2022-09-27T00:00:06.310Z,13.96
2022-09-27T00:01:06.401Z,14.06
2022-09-27T00:02:06.435Z,14.14
2022-09-27T00:03:06.307Z,14.09
2022-09-27T00:04:06.266Z,13.94
2022-09-27T00:05:06.256Z,13.80
2022-09-27T00:06:06.247Z,13.77
2022-09-27T00:07:06.248Z,13.69
2022-09-27T00:08:06.221Z,13.71
2022-09-27T00:09:06.211Z,13.79
2022-09-27T00:10:06.199Z,13.77
2022-09-27T00:11:06.200Z,13.59
2022-09-27T00:12:06.179Z,13.55
2022-09-27T00:13:06.185Z,13.52
2022-09-27T00:14:06.156Z,13.47
2022-09-27T00:15:06.183Z,13.51
2022-09-27T00:16:06.206Z,13.47
2022-09-27T00:17:06.134Z,13.52
2022-09-27T00:18:06.160Z,13.52
2022-09-27T00:19:06.104Z,13.56
2022-09-27T00:20:06.090Z,13.58
2022-09-27T00:21:06.264Z,13.55
2022-09-27T00:22:06.071Z,13.61
2022-09-27T00:23:06.061Z,13.51
2022-09-27T00:24:06.048Z,13.49
2022-09-27T00:25:06.038Z,13.51
2022-09-27T00:26:06.210Z,13.38
2022-09-27T00:27:06.018Z,13.38
2022-09-27T00:28:06.003Z,13.32
2022-09-27T00:29:06.010Z,13.29
2022-09-27T00:30:05.983Z,13.18
2022-09-27T00:31:06.011Z,13.25
2022-09-27T00:32:05.968Z,13.37
2022-09-27T00:33:05.949Z,13.37
2022-09-27T00:34:05.942Z,13.30
2022-09-27T00:35:05.933Z,13.27
2022-09-27T00:36:05.927Z,13.29
2022-09-27T00:37:05.907Z,13.37
2022-09-27T00:38:05.893Z,13.30
2022-09-27T00:39:05.883Z,13.38
2022-09-27T00:40:05.871Z,13.32
2022-09-27T00:41:05.941Z,13.38
2022-09-27T00:42:05.849Z,13.38
2022-09-27T00:43:05.839Z,13.41
2022-09-27T00:44:05.831Z,13.40
2022-09-27T00:45:05.840Z,13.37
2022-09-27T00:46:05.872Z,13.40
2022-09-27T00:47:05.796Z,13.52
2022-09-27T00:48:05.784Z,13.51
2022-09-27T00:49:05.777Z,13.46
2022-09-27T00:50:05.769Z,13.51
2022-09-27T00:51:05.762Z,13.55
2022-09-27T00:52:05.794Z,13.65
2022-09-27T00:53:05.731Z,13.56
2022-09-27T00:54:05.719Z,13.61
2022-09-27T00:55:05.710Z,13.55
2022-09-27T00:56:05.708Z,13.49
2022-09-27T00:57:05.693Z,13.55
2022-09-27T00:58:05.675Z,13.62
2022-09-27T00:59:05.666Z,13.58
2022-09-27T01:00:05.668Z,13.52
2022-09-27T01:01:05.736Z,13.59
2022-09-27T01:02:05.700Z,13.55
2022-09-27T01:03:05.621Z,13.49
2022-09-27T01:04:05.611Z,13.40
2022-09-27T01:05:05.611Z,13.36
2022-09-27T01:06:05.588Z,13.49
2022-09-27T01:07:05.578Z,13.37
2022-09-27T01:08:05.566Z,13.38
2022-09-27T01:09:05.556Z,13.47
2022-09-27T01:10:05.553Z,13.46
2022-09-27T01:11:05.534Z,13.44
2022-09-27T01:12:05.525Z,13.44
2022-09-27T01:13:05.519Z,13.43
2022-09-27T01:14:05.501Z,13.46
2022-09-27T01:15:05.501Z,13.49
2022-09-27T01:16:05.539Z,13.47
2022-09-27T01:17:05.487Z,13.46
2022-09-27T01:18:05.458Z,13.55
2022-09-27T01:19:05.447Z,13.49
2022-09-27T01:20:05.446Z,13.51
2022-09-27T01:21:05.424Z,13.46
2022-09-27T01:22:05.413Z,13.49
2022-09-27T01:23:05.404Z,13.47
2022-09-27T01:24:05.390Z,13.44
2022-09-27T01:25:05.392Z,13.41
2022-09-27T01:26:05.368Z,13.37
2022-09-27T01:27:05.358Z,13.38
2022-09-27T01:28:05.347Z,13.30
2022-09-27T01:29:05.338Z,13.24
2022-09-27T01:30:05.385Z,13.17
2022-09-27T01:31:05.367Z,13.27
2022-09-27T01:32:05.302Z,13.25
2022-09-27T01:33:05.312Z,13.37
2022-09-27T01:34:05.279Z,13.29
2022-09-27T01:35:05.281Z,13.43
2022-09-27T01:36:05.260Z,13.47
2022-09-27T01:37:05.256Z,13.32
2022-09-27T01:38:05.236Z,13.37
2022-09-27T01:39:05.250Z,13.47
2022-09-27T01:40:05.217Z,13.46
2022-09-27T01:41:05.206Z,13.54
2022-09-27T01:42:05.193Z,13.55
2022-09-27T01:43:05.185Z,13.49
2022-09-27T01:44:05.173Z,13.38
2022-09-27T01:45:05.172Z,13.40
2022-09-27T01:46:05.199Z,13.46
2022-09-27T01:47:05.147Z,13.51
2022-09-27T01:48:05.128Z,13.47
2022-09-27T01:49:05.139Z,13.49
2022-09-27T01:50:05.124Z,13.55
2022-09-27T01:51:05.104Z,13.55
2022-09-27T01:52:05.086Z,13.54
2022-09-27T01:53:05.076Z,13.49
2022-09-27T01:54:05.063Z,13.62
2022-09-27T01:55:05.066Z,13.62
2022-09-27T01:56:05.043Z,13.62
2022-09-27T01:57:05.032Z,13.74
2022-09-27T01:58:05.018Z,13.58
2022-09-27T01:59:05.012Z,13.63
2022-09-27T02:00:05.048Z,13.67
2022-09-27T02:01:05.052Z,13.62
2022-09-27T02:02:04.975Z,13.59
2022-09-27T02:03:05.042Z,13.69
2022-09-27T02:04:04.955Z,13.58
2022-09-27T02:05:04.974Z,13.51
2022-09-27T02:06:04.931Z,13.58
2022-09-27T02:07:04.922Z,13.59
2022-09-27T02:08:04.911Z,13.62
2022-09-27T02:09:04.902Z,13.69
2022-09-27T02:10:04.908Z,13.71
2022-09-27T02:11:04.879Z,13.69
2022-09-27T02:12:04.868Z,13.70
2022-09-27T02:13:04.856Z,13.77
2022-09-27T02:14:04.858Z,13.71
2022-09-27T02:15:04.842Z,13.70
2022-09-27T02:16:04.942Z,13.71
2022-09-27T02:17:04.816Z,13.73
2022-09-27T02:18:04.800Z,13.65
2022-09-27T02:19:04.801Z,13.70
2022-09-27T02:20:04.780Z,13.71
2022-09-27T02:21:04.790Z,13.58
2022-09-27T02:22:04.760Z,13.62
2022-09-27T02:23:04.749Z,13.65
2022-09-27T02:24:04.762Z,13.63
2022-09-27T02:25:04.731Z,13.61
2022-09-27T02:26:04.713Z,13.62
2022-09-27T02:27:04.706Z,13.71
2022-09-27T02:28:04.691Z,13.70
2022-09-27T02:29:04.681Z,13.70
2022-09-27T02:30:04.715Z,13.71
2022-09-27T02:31:04.713Z,13.81
2022-09-27T02:32:04.647Z,13.76
2022-09-27T02:33:04.638Z,13.91
2022-09-27T02:34:04.626Z,13.95
2022-09-27T02:35:04.627Z,14.01
2022-09-27T02:36:04.604Z,14.01
2022-09-27T02:37:04.612Z,13.88
2022-09-27T02:38:04.582Z,13.88
2022-09-27T02:39:04.575Z,13.98
2022-09-27T02:40:04.572Z,13.95
2022-09-27T02:41:04.634Z,13.91
2022-09-27T02:42:04.539Z,13.88
2022-09-27T02:43:04.530Z,13.91
2022-09-27T02:44:04.516Z,13.89
2022-09-27T02:45:04.525Z,13.94
2022-09-27T02:46:04.543Z,14.02
2022-09-27T02:47:04.487Z,13.91
2022-09-27T02:48:04.476Z,13.94
2022-09-27T02:49:04.463Z,13.98
2022-09-27T02:50:04.466Z,14.07
2022-09-27T02:51:04.443Z,14.07
2022-09-27T02:52:04.429Z,13.99
2022-09-27T02:53:04.439Z,13.94
2022-09-27T02:54:04.406Z,13.88
2022-09-27T02:55:04.408Z,13.89
2022-09-27T02:56:04.384Z,13.96
2022-09-27T02:57:04.376Z,13.95
2022-09-27T02:58:04.364Z,13.91
2022-09-27T02:59:04.354Z,13.91
2022-09-27T03:00:04.351Z,13.81
2022-09-27T03:01:04.379Z,13.77
2022-09-27T03:02:04.427Z,13.77
2022-09-27T03:03:04.356Z,13.70
2022-09-27T03:04:04.301Z,13.81
2022-09-27T03:05:04.299Z,13.70
2022-09-27T03:06:04.281Z,13.80
2022-09-27T03:07:04.265Z,13.73
2022-09-27T03:08:04.253Z,13.61
2022-09-27T03:09:04.263Z,13.74
2022-09-27T03:10:04.242Z,13.61
2022-09-27T03:11:04.222Z,13.63
2022-09-27T03:12:04.212Z,13.77
2022-09-27T03:13:04.200Z,13.73
2022-09-27T03:14:09.175Z,13.80
2022-09-27T03:15:05.189Z,13.94
2022-09-27T03:16:04.166Z,13.94
2022-09-27T03:17:04.235Z,13.88
2022-09-27T03:18:04.145Z,13.77
2022-09-27T03:19:04.134Z,13.81
2022-09-27T03:20:04.189Z,13.79
2022-09-27T03:21:04.115Z,13.80
2022-09-27T03:22:04.103Z,13.73
2022-09-27T03:23:04.090Z,13.69
2022-09-27T03:24:04.083Z,13.67
2022-09-27T03:25:04.103Z,13.73
2022-09-27T03:26:04.056Z,13.73
2022-09-27T03:27:04.046Z,13.63
2022-09-27T03:28:04.040Z,13.69
2022-09-27T03:29:04.026Z,13.70
2022-09-27T03:30:04.021Z,13.74
2022-09-27T03:31:04.127Z,13.70
2022-09-27T03:32:03.998Z,13.79
2022-09-27T03:33:03.989Z,13.80
2022-09-27T03:34:03.969Z,13.83
2022-09-27T03:35:03.970Z,13.79
2022-09-27T03:36:03.948Z,13.74
2022-09-27T03:37:03.947Z,13.70
2022-09-27T03:38:03.926Z,13.67
2022-09-27T03:39:03.946Z,13.73
2022-09-27T03:40:03.919Z,13.77
2022-09-27T03:41:04.056Z,13.79
2022-09-27T03:42:03.885Z,13.91
2022-09-27T03:43:03.872Z,13.88
2022-09-27T03:44:03.861Z,13.92
2022-09-27T03:45:03.862Z,13.95
2022-09-27T03:46:03.929Z,14.02
2022-09-27T03:47:03.827Z,13.96
2022-09-27T03:48:03.818Z,14.06
2022-09-27T03:49:03.817Z,14.06
2022-09-27T03:50:03.794Z,14.10
2022-09-27T03:51:03.784Z,14.07
2022-09-27T03:52:03.777Z,13.95
2022-09-27T03:53:03.761Z,13.96
2022-09-27T03:54:03.760Z,13.95
2022-09-27T03:55:03.739Z,13.95
2022-09-27T03:56:03.730Z,13.88
2022-09-27T03:57:03.743Z,14.02
2022-09-27T03:58:03.707Z,14.06
2022-09-27T03:59:03.709Z,14.06
2022-09-27T04:00:03.686Z,14.09
2022-09-27T04:01:03.722Z,14.04
2022-09-27T04:02:03.715Z,13.94
2022-09-27T04:03:03.665Z,13.99
2022-09-27T04:04:07.569Z,14.04
2022-09-27T04:05:04.631Z,14.07
2022-09-27T04:06:03.622Z,14.14
2022-09-27T04:07:03.615Z,14.10
2022-09-27T04:08:03.599Z,14.06
2022-09-27T04:09:03.595Z,14.01
2022-09-27T04:10:03.579Z,14.01
2022-09-27T04:11:03.571Z,14.01
2022-09-27T04:12:03.556Z,13.88
2022-09-27T04:13:03.563Z,13.99
2022-09-27T04:14:03.555Z,13.87
2022-09-27T04:15:03.520Z,13.95
2022-09-27T04:16:03.529Z,13.99
2022-09-27T04:17:03.581Z,14.12
2022-09-27T04:18:03.491Z,14.16
2022-09-27T04:19:03.493Z,14.07
2022-09-27T04:20:03.467Z,14.13
2022-09-27T04:21:03.462Z,14.13
2022-09-27T04:22:03.494Z,14.04
2022-09-27T04:23:03.435Z,14.01
2022-09-27T04:24:03.437Z,13.94
2022-09-27T04:25:03.416Z,14.02
2022-09-27T04:26:03.409Z,13.88
2022-09-27T04:27:03.404Z,13.92
2022-09-27T04:28:03.386Z,13.89
2022-09-27T04:29:03.420Z,13.87
2022-09-27T04:30:03.360Z,13.91
2022-09-27T04:31:03.475Z,13.84
2022-09-27T04:32:03.336Z,13.98
2022-09-27T04:33:03.326Z,13.84
2022-09-27T04:34:03.330Z,13.80
2022-09-27T04:35:03.304Z,13.80
2022-09-27T04:36:03.294Z,13.63
2022-09-27T04:37:03.283Z,13.69
2022-09-27T04:38:03.352Z,13.81
2022-09-27T04:39:03.270Z,13.80
2022-09-27T04:40:03.258Z,13.80
2022-09-27T04:41:03.344Z,13.80
2022-09-27T04:42:03.232Z,13.80
2022-09-27T04:43:03.221Z,13.77
2022-09-27T04:44:03.217Z,13.84
2022-09-27T04:45:03.212Z,13.79
2022-09-27T04:46:03.236Z,13.81
2022-09-27T04:47:03.179Z,13.88
2022-09-27T04:48:03.167Z,13.77
2022-09-27T04:49:03.174Z,13.91
2022-09-27T04:50:03.141Z,13.95
2022-09-27T04:51:03.141Z,13.92
2022-09-27T04:52:03.122Z,13.96
2022-09-27T04:53:03.107Z,13.95
2022-09-27T04:54:03.114Z,13.92
2022-09-27T04:55:03.085Z,13.80
2022-09-27T04:56:03.076Z,13.73
2022-09-27T04:57:03.062Z,13.65
2022-09-27T04:58:03.065Z,13.63
2022-09-27T04:59:07.011Z,13.71
2022-09-27T05:00:04.033Z,13.65
2022-09-27T05:01:03.095Z,13.59
2022-09-27T05:02:03.094Z,13.63
2022-09-27T05:03:03.053Z,13.61
2022-09-27T05:04:03.000Z,13.59
2022-09-27T05:05:02.986Z,13.63
2022-09-27T05:06:02.972Z,13.67
2022-09-27T05:07:02.982Z,13.63
2022-09-27T05:08:02.942Z,13.59
2022-09-27T05:09:02.942Z,13.59
2022-09-27T05:10:02.926Z,13.61
2022-09-27T05:11:02.910Z,13.59
2022-09-27T05:12:02.900Z,13.69
2022-09-27T05:13:02.888Z,13.62
2022-09-27T05:14:02.886Z,13.62
2022-09-27T05:15:02.884Z,13.70
2022-09-27T05:16:02.866Z,13.70
2022-09-27T05:17:02.914Z,13.70
2022-09-27T05:18:02.837Z,13.70
2022-09-27T05:19:02.834Z,13.83
2022-09-27T05:20:02.823Z,13.81
2022-09-27T05:21:02.800Z,13.80
2022-09-27T05:22:02.801Z,13.79
2022-09-27T05:23:02.779Z,13.79
2022-09-27T05:24:02.778Z,13.88
2022-09-27T05:25:02.756Z,13.81
2022-09-27T05:26:02.748Z,13.76
2022-09-27T05:27:02.746Z,13.74
2022-09-27T05:28:02.727Z,13.71
2022-09-27T05:29:02.810Z,13.71
2022-09-27T05:30:02.704Z,13.77
2022-09-27T05:31:02.796Z,13.71
2022-09-27T05:32:02.683Z,13.69
2022-09-27T05:33:02.686Z,13.73
2022-09-27T05:34:02.719Z,13.69
2022-09-27T05:35:02.655Z,13.61
2022-09-27T05:36:02.638Z,13.70
2022-09-27T05:37:02.629Z,13.63
2022-09-27T05:38:02.617Z,13.56
2022-09-27T05:39:02.614Z,13.47
2022-09-27T05:40:16.897Z,13.46
2022-09-27T05:41:03.632Z,13.32
2022-09-27T05:42:02.573Z,13.33
2022-09-27T05:43:02.559Z,13.22
2022-09-27T05:44:02.560Z,13.24
2022-09-27T05:45:02.541Z,13.21
2022-09-27T05:46:02.610Z,13.15
2022-09-27T05:47:02.581Z,13.27
2022-09-27T05:48:02.523Z,13.18
2022-09-27T05:49:02.526Z,13.25
2022-09-27T05:50:02.482Z,13.30
2022-09-27T05:51:02.481Z,13.49
2022-09-27T05:52:02.463Z,13.54
2022-09-27T05:53:02.448Z,13.47
2022-09-27T05:54:02.440Z,13.55
2022-09-27T05:55:02.437Z,13.61
2022-09-27T05:56:02.515Z,13.59
2022-09-27T05:57:02.407Z,13.69
2022-09-27T05:58:02.395Z,13.69
2022-09-27T05:59:02.385Z,13.59
2022-09-27T06:00:02.398Z,13.61
2022-09-27T06:01:02.368Z,13.56
2022-09-27T06:02:02.452Z,13.52
2022-09-27T06:03:02.391Z,13.55
2022-09-27T06:04:02.333Z,13.49
2022-09-27T06:05:02.396Z,13.58
2022-09-27T06:06:02.310Z,13.59
2022-09-27T06:07:02.302Z,13.62
2022-09-27T06:08:02.285Z,13.54
2022-09-27T06:09:02.276Z,13.70
2022-09-27T06:10:02.274Z,13.54
2022-09-27T06:11:02.253Z,13.61
2022-09-27T06:12:02.245Z,13.54
2022-09-27T06:13:02.232Z,13.59
2022-09-27T06:14:02.228Z,13.44
2022-09-27T06:15:02.217Z,13.36
2022-09-27T06:16:02.199Z,13.27
2022-09-27T06:17:02.271Z,13.14
2022-09-27T06:18:02.177Z,13.22
2022-09-27T06:19:02.177Z,13.22
2022-09-27T06:20:02.169Z,13.20
2022-09-27T06:21:02.202Z,13.17
2022-09-27T06:22:02.136Z,13.07
2022-09-27T06:23:02.138Z,13.11
2022-09-27T06:24:02.158Z,13.14
2022-09-27T06:25:02.101Z,13.20
2022-09-27T06:26:02.089Z,13.21
2022-09-27T06:27:02.078Z,13.21
2022-09-27T06:28:02.070Z,13.20
2022-09-27T06:29:02.067Z,13.17
2022-09-27T06:30:02.054Z,13.17
2022-09-27T06:31:02.140Z,13.20
2022-09-27T06:32:02.024Z,13.21
2022-09-27T06:33:02.012Z,13.32
2022-09-27T06:34:02.016Z,13.33
2022-09-27T06:35:01.989Z,13.46
2022-09-27T06:36:01.983Z,13.44
2022-09-27T06:37:01.995Z,13.40
2022-09-27T06:38:01.987Z,13.38
2022-09-27T06:39:01.957Z,13.32
2022-09-27T06:40:02.841Z,13.27
2022-09-27T06:41:01.925Z,13.29
2022-09-27T06:42:01.918Z,13.41
2022-09-27T06:43:01.903Z,13.49
2022-09-27T06:44:01.908Z,13.43
2022-09-27T06:45:01.879Z,13.54
2022-09-27T06:46:01.929Z,13.51
2022-09-27T06:47:01.858Z,13.33
2022-09-27T06:48:01.848Z,13.22
2022-09-27T06:49:01.846Z,13.20
2022-09-27T06:50:01.828Z,13.24
2022-09-27T06:51:01.814Z,13.15
2022-09-27T06:52:01.803Z,13.22
2022-09-27T06:53:01.818Z,13.20
2022-09-27T06:54:01.799Z,13.24
2022-09-27T06:55:01.771Z,13.22
2022-09-27T06:56:01.764Z,13.33
2022-09-27T06:57:02.814Z,13.17
2022-09-27T06:58:01.795Z,13.17
2022-09-27T06:59:01.741Z,13.17
2022-09-27T07:00:01.726Z,13.07
2022-09-27T07:01:01.796Z,13.07
2022-09-27T07:02:01.742Z,13.06
2022-09-27T07:03:01.700Z,13.17
2022-09-27T07:04:01.686Z,13.22
2022-09-27T07:05:01.713Z,13.17
2022-09-27T07:06:01.652Z,13.20
2022-09-27T07:07:01.662Z,13.04
2022-09-27T07:08:01.634Z,13.03
2022-09-27T07:09:01.649Z,13.03
2022-09-27T07:10:03.364Z,13.03
2022-09-27T07:11:01.596Z,13.06
2022-09-27T07:12:01.624Z,13.18
2022-09-27T07:13:01.579Z,13.11
2022-09-27T07:14:01.576Z,13.17
2022-09-27T07:15:01.553Z,13.32
2022-09-27T07:16:01.546Z,13.27
2022-09-27T07:17:01.552Z,13.17
2022-09-27T07:18:01.522Z,13.25
2022-09-27T07:19:01.523Z,13.17
2022-09-27T07:20:02.251Z,13.15
2022-09-27T07:21:01.485Z,13.22
2022-09-27T07:22:01.477Z,13.29
2022-09-27T07:23:01.464Z,13.25
2022-09-27T07:24:01.470Z,13.32
2022-09-27T07:25:01.460Z,13.36
2022-09-27T07:26:01.452Z,13.33
2022-09-27T07:27:01.422Z,13.41
2022-09-27T07:28:02.637Z,13.47
2022-09-27T07:29:01.410Z,13.46
2022-09-27T07:30:01.393Z,13.54
2022-09-27T07:31:01.449Z,13.56
2022-09-27T07:32:01.374Z,13.71
2022-09-27T07:33:01.357Z,13.61
2022-09-27T07:34:01.353Z,13.63
2022-09-27T07:35:01.333Z,13.77
2022-09-27T07:36:01.324Z,13.74
2022-09-27T07:37:01.310Z,13.71
2022-09-27T07:38:01.324Z,13.74
2022-09-27T07:39:01.299Z,13.76
2022-09-27T07:40:01.277Z,13.70
2022-09-27T07:41:01.349Z,13.67
2022-09-27T07:42:01.257Z,13.70
2022-09-27T07:43:01.244Z,13.59
2022-09-27T07:44:01.255Z,13.65
2022-09-27T07:45:01.226Z,13.59
2022-09-27T07:46:01.250Z,13.54
2022-09-27T07:47:01.201Z,13.56
2022-09-27T07:48:01.191Z,13.62
2022-09-27T07:49:01.189Z,13.71
2022-09-27T07:50:01.170Z,13.61
2022-09-27T07:51:01.159Z,13.65
2022-09-27T07:52:01.157Z,13.71
2022-09-27T07:53:01.141Z,13.70
2022-09-27T07:54:04.173Z,13.74
2022-09-27T07:55:02.115Z,13.77
2022-09-27T07:56:01.107Z,13.96
2022-09-27T07:57:01.111Z,13.80
2022-09-27T07:58:01.080Z,13.73
2022-09-27T07:59:01.081Z,13.67
2022-09-27T08:00:01.061Z,13.59
2022-09-27T08:01:01.100Z,13.71
2022-09-27T08:02:01.072Z,13.71
2022-09-27T08:03:01.034Z,13.79
2022-09-27T08:04:01.030Z,13.92
2022-09-27T08:05:01.009Z,13.80
2022-09-27T08:06:00.993Z,13.70
2022-09-27T08:07:00.983Z,13.71
2022-09-27T08:08:00.971Z,13.79
2022-09-27T08:09:00.975Z,13.71
2022-09-27T08:10:00.952Z,13.74
2022-09-27T08:11:00.943Z,13.77
2022-09-27T08:12:00.943Z,13.91
2022-09-27T08:13:00.942Z,13.89
2022-09-27T08:14:00.915Z,13.94
2022-09-27T08:15:00.898Z,13.98
2022-09-27T08:16:00.909Z,13.98
2022-09-27T08:17:00.878Z,13.96
2022-09-27T08:18:00.863Z,13.98
2022-09-27T08:19:00.867Z,13.99
2022-09-27T08:20:00.838Z,13.80
2022-09-27T08:21:00.830Z,13.63
2022-09-27T08:22:00.821Z,13.67
2022-09-27T08:23:00.823Z,13.73
2022-09-27T08:24:00.802Z,13.71
2022-09-27T08:25:00.787Z,13.70
2022-09-27T08:26:00.784Z,13.77
2022-09-27T08:27:00.766Z,13.91
2022-09-27T08:28:00.757Z,13.95
2022-09-27T08:29:00.776Z,13.91
2022-09-27T08:30:00.757Z,13.94
2022-09-27T08:31:00.723Z,13.96
2022-09-27T08:32:00.757Z,13.92
2022-09-27T08:33:00.728Z,14.01
2022-09-27T08:34:00.696Z,13.92
2022-09-27T08:35:00.698Z,13.92
2022-09-27T08:36:00.665Z,13.92
2022-09-27T08:37:00.656Z,13.95
2022-09-27T08:38:00.722Z,13.91
2022-09-27T08:39:00.645Z,13.80
2022-09-27T08:40:00.658Z,13.76
2022-09-27T08:41:00.613Z,13.83
2022-09-27T08:42:00.600Z,13.80
2022-09-27T08:43:00.604Z,13.77
2022-09-27T08:44:00.588Z,13.81
2022-09-27T08:45:03.335Z,13.89
2022-09-27T08:46:00.667Z,13.89
2022-09-27T08:47:00.548Z,13.94
2022-09-27T08:48:00.551Z,13.92
2022-09-27T08:49:00.527Z,13.77
2022-09-27T08:50:00.515Z,13.80
2022-09-27T08:51:00.571Z,13.77
2022-09-27T08:52:00.495Z,13.80
2022-09-27T08:53:00.494Z,13.83
2022-09-27T08:54:00.472Z,13.88
2022-09-27T08:55:00.462Z,13.84
2022-09-27T08:56:00.448Z,13.80
2022-09-27T08:57:00.438Z,13.77
2022-09-27T08:58:00.462Z,13.83
2022-09-27T08:59:00.416Z,13.74
2022-09-27T09:00:00.419Z,13.62
2022-09-27T09:01:00.512Z,13.62
2022-09-27T09:02:00.460Z,13.67
2022-09-27T09:03:00.381Z,13.74
2022-09-27T09:04:00.426Z,13.79
2022-09-27T09:05:00.350Z,13.70
2022-09-27T09:06:00.342Z,13.83
2022-09-27T09:07:00.330Z,13.89
2022-09-27T09:08:00.331Z,13.95
2022-09-27T09:09:00.308Z,13.98
2022-09-27T09:10:00.295Z,13.96
2022-09-27T09:11:00.288Z,14.06
2022-09-27T09:12:00.277Z,14.09
2022-09-27T09:13:00.277Z,14.09
2022-09-27T09:14:00.252Z,14.10
2022-09-27T09:15:00.251Z,13.99
2022-09-27T09:16:00.232Z,13.95
2022-09-27T09:17:00.255Z,13.84
2022-09-27T09:18:00.229Z,13.92
2022-09-27T09:19:00.200Z,13.80
2022-09-27T09:20:00.201Z,13.92
2022-09-27T09:21:00.250Z,13.96
2022-09-27T09:22:00.168Z,13.95
2022-09-27T09:23:00.169Z,13.92
2022-09-27T09:24:00.149Z,14.01
2022-09-27T09:25:00.134Z,13.94
2022-09-27T09:26:00.155Z,14.06
2022-09-27T09:27:00.118Z,14.07
2022-09-27T09:28:02.388Z,13.95
2022-09-27T09:29:00.104Z,14.14
2022-09-27T09:30:00.127Z,14.17
2022-09-27T09:31:00.087Z,14.04
2022-09-27T09:32:00.101Z,14.13
2022-09-27T09:33:00.097Z,14.09
2022-09-27T09:34:00.041Z,14.01
2022-09-27T09:35:00.025Z,13.99
2022-09-27T09:36:00.016Z,13.98
2022-09-27T09:37:00.002Z,14.10
2022-09-27T09:38:00.025Z,14.12
2022-09-27T09:38:59.981Z,14.17
2022-09-27T09:39:59.969Z,14.27
2022-09-27T09:40:59.958Z,14.34
2022-09-27T09:41:59.948Z,14.37
2022-09-27T09:42:59.951Z,14.31
2022-09-27T09:43:59.925Z,14.34
2022-09-27T09:44:59.916Z,14.42
2022-09-27T09:45:59.949Z,14.43
2022-09-27T09:46:59.898Z,14.42
2022-09-27T09:47:59.906Z,14.39
2022-09-27T09:48:59.973Z,14.35
2022-09-27T09:49:59.863Z,14.31
2022-09-27T09:50:59.852Z,14.34
2022-09-27T09:51:59.841Z,14.38
2022-09-27T09:52:59.840Z,14.49
2022-09-27T09:53:59.819Z,14.50
2022-09-27T09:54:59.809Z,14.50
2022-09-27T09:55:59.797Z,14.50
2022-09-27T09:56:59.788Z,14.53
2022-09-27T09:57:59.785Z,14.61
2022-09-27T09:58:59.766Z,14.64
2022-09-27T09:59:59.755Z,14.68
2022-09-27T10:00:59.790Z,14.74
2022-09-27T10:01:59.790Z,14.72
2022-09-27T10:02:59.736Z,14.75
2022-09-27T10:03:59.712Z,14.81
2022-09-27T10:05:03.887Z,14.83
2022-09-27T10:06:00.685Z,14.81
2022-09-27T10:06:59.681Z,14.90
2022-09-27T10:07:59.675Z,14.88
2022-09-27T10:08:59.656Z,14.94
2022-09-27T10:09:59.647Z,15.08
2022-09-27T10:10:59.666Z,15.13
2022-09-27T10:11:59.635Z,15.21
2022-09-27T10:12:59.614Z,15.28
2022-09-27T10:13:59.604Z,15.33
2022-09-27T10:14:59.592Z,15.26
2022-09-27T10:15:59.623Z,15.31
2022-09-27T10:16:59.577Z,15.41
2022-09-27T10:17:59.557Z,15.45
2022-09-27T10:18:59.550Z,15.49
2022-09-27T10:19:59.540Z,15.54
2022-09-27T10:20:59.545Z,15.52
2022-09-27T10:21:59.521Z,15.49
2022-09-27T10:22:59.506Z,15.38
2022-09-27T10:23:59.490Z,15.35
2022-09-27T10:24:59.484Z,15.41
2022-09-27T10:25:59.472Z,15.42
2022-09-27T10:26:59.462Z,15.30
2022-09-27T10:27:59.461Z,15.30
2022-09-27T10:28:59.439Z,15.33
2022-09-27T10:29:59.427Z,15.36
2022-09-27T10:30:59.417Z,15.27
2022-09-27T10:31:59.427Z,15.15
2022-09-27T10:32:59.404Z,15.05
2022-09-27T10:33:59.382Z,15.11
2022-09-27T10:34:59.374Z,15.09
2022-09-27T10:35:59.388Z,15.11
2022-09-27T10:36:59.376Z,15.21
2022-09-27T10:37:59.351Z,15.39
2022-09-27T10:38:59.340Z,15.39
2022-09-27T10:39:59.360Z,15.31
2022-09-27T10:40:59.384Z,15.28
2022-09-27T10:41:59.299Z,15.31
2022-09-27T10:42:59.297Z,15.43
2022-09-27T10:43:59.272Z,15.36
2022-09-27T10:44:59.265Z,15.43
2022-09-27T10:45:59.311Z,15.42
2022-09-27T10:46:59.255Z,15.51
2022-09-27T10:47:59.264Z,15.52
2022-09-27T10:48:59.221Z,15.68
2022-09-27T10:49:59.206Z,15.79
2022-09-27T10:50:59.624Z,15.94
2022-09-27T10:51:59.201Z,16.06
2022-09-27T10:52:59.209Z,16.20
2022-09-27T10:53:59.163Z,16.22
2022-09-27T10:54:59.154Z,16.38
2022-09-27T10:55:59.144Z,16.37
2022-09-27T10:56:59.145Z,16.56
2022-09-27T10:57:59.122Z,16.52
2022-09-27T10:58:59.111Z,16.65
2022-09-27T10:59:59.102Z,16.75
2022-09-27T11:00:59.229Z,16.62
2022-09-27T11:01:59.107Z,16.62
2022-09-27T11:02:59.068Z,16.55
2022-09-27T11:03:59.056Z,16.45
2022-09-27T11:04:59.062Z,16.35
2022-09-27T11:05:59.035Z,16.37
2022-09-27T11:06:59.037Z,16.35
2022-09-27T11:07:59.031Z,16.34
2022-09-27T11:08:59.057Z,16.33
2022-09-27T11:09:58.989Z,16.33
2022-09-27T11:10:58.984Z,16.22
2022-09-27T11:11:58.990Z,16.23
2022-09-27T11:12:58.963Z,16.06
2022-09-27T11:13:58.947Z,16.03
2022-09-27T11:14:58.937Z,16.07
2022-09-27T11:15:58.964Z,16.04
2022-09-27T11:16:58.915Z,16.03
2022-09-27T11:17:58.919Z,16.01
2022-09-27T11:18:58.899Z,15.96
2022-09-27T11:19:58.881Z,15.94
2022-09-27T11:20:58.884Z,16.01
2022-09-27T11:21:58.875Z,15.97
2022-09-27T11:22:58.889Z,15.97
2022-09-27T11:23:58.841Z,15.97
2022-09-27T11:24:58.855Z,16.06
2022-09-27T11:25:58.817Z,16.11
2022-09-27T11:26:58.831Z,16.09
2022-09-27T11:27:58.800Z,16.15
2022-09-27T11:28:58.785Z,16.11
2022-09-27T11:29:58.773Z,16.14
2022-09-27T11:30:58.763Z,16.25
2022-09-27T11:31:58.807Z,16.16
2022-09-27T11:32:58.792Z,16.23
2022-09-27T11:33:58.729Z,16.20
2022-09-27T11:34:58.724Z,16.18
2022-09-27T11:35:58.707Z,16.25
2022-09-27T11:36:58.706Z,16.27
2022-09-27T11:37:58.696Z,16.25
2022-09-27T11:39:02.474Z,16.30
2022-09-27T11:39:58.700Z,16.30
2022-09-27T11:40:58.673Z,16.26
2022-09-27T11:41:58.652Z,16.25
2022-09-27T11:42:58.653Z,16.14
2022-09-27T11:43:58.620Z,16.16
2022-09-27T11:45:19.911Z,16.06
2022-09-27T11:46:19.194Z,16.09
2022-09-27T11:46:59.692Z,15.94
2022-09-27T11:47:58.703Z,15.94
2022-09-27T11:48:58.592Z,15.81
2022-09-27T11:49:58.554Z,15.64
2022-09-27T11:50:58.547Z,15.59
2022-09-27T11:51:58.547Z,15.42
2022-09-27T11:52:58.528Z,15.24
2022-09-27T11:53:58.513Z,15.09
2022-09-27T11:54:58.505Z,14.91
2022-09-27T11:55:58.492Z,14.78
2022-09-27T11:56:58.508Z,14.69
2022-09-27T11:57:58.465Z,14.65
2022-09-27T11:58:58.458Z,14.67
2022-09-27T11:59:58.445Z,14.68
2022-09-27T12:00:58.435Z,14.53
2022-09-27T12:01:58.497Z,14.46
2022-09-27T12:02:58.474Z,14.47
2022-09-27T12:03:58.404Z,14.53
2022-09-27T12:04:58.404Z,14.52
2022-09-27T12:06:00.576Z,14.52
2022-09-27T12:06:58.403Z,14.50
2022-09-27T12:07:58.379Z,14.52
2022-09-27T12:08:58.348Z,14.37
2022-09-27T12:09:58.344Z,14.46
2022-09-27T12:10:58.334Z,14.42
2022-09-27T12:11:58.328Z,14.42
2022-09-27T12:12:58.328Z,14.43
2022-09-27T12:13:58.295Z,14.34
2022-09-27T12:15:01.743Z,14.34
2022-09-27T12:15:59.389Z,14.38
2022-09-27T12:16:58.270Z,14.42
2022-09-27T12:17:58.251Z,14.43
2022-09-27T12:18:58.241Z,14.34
2022-09-27T12:19:58.235Z,14.39
2022-09-27T12:20:58.220Z,14.31
2022-09-27T12:21:58.220Z,14.42
2022-09-27T12:22:59.872Z,14.47
2022-09-27T12:23:58.188Z,14.38
2022-09-27T12:24:58.173Z,14.52
2022-09-27T12:25:58.165Z,14.52
2022-09-27T12:26:58.162Z,14.60
2022-09-27T12:27:58.145Z,14.62
2022-09-27T12:28:58.152Z,14.69
2022-09-27T12:29:58.122Z,14.81
2022-09-27T12:31:24.508Z,14.87
2022-09-27T12:31:59.132Z,14.90
2022-09-27T12:32:58.087Z,15.05
2022-09-27T12:33:58.083Z,15.06
2022-09-27T12:34:58.065Z,15.12
2022-09-27T12:35:58.055Z,15.26
2022-09-27T12:36:58.082Z,15.27
2022-09-27T12:37:58.071Z,15.33
2022-09-27T12:38:58.083Z,15.41
2022-09-27T12:39:58.014Z,15.46
2022-09-27T12:40:58.051Z,15.46
2022-09-27T12:41:58.004Z,15.59
2022-09-27T12:42:57.978Z,15.61
2022-09-27T12:43:58.016Z,15.66
2022-09-27T12:44:58.040Z,15.57
2022-09-27T12:45:57.952Z,15.67
2022-09-27T12:46:58.020Z,15.67
2022-09-27T12:47:57.924Z,15.79
2022-09-27T12:48:57.912Z,15.75
2022-09-27T12:50:01.499Z,15.76
2022-09-27T12:50:57.893Z,15.67
2022-09-27T12:51:57.893Z,15.74